createdAt,value
2023-01-15T00:05:03.565Z,100036.20
2023-01-15T00:10:13.011Z,100020.19
2023-01-15T00:15:18.649Z,100006.25
2023-01-15T00:20:24.420Z,99998.84
2023-01-15T00:25:48.974Z,99992.80
2023-01-15T00:30:54.901Z,99976.12
2023-01-15T00:36:00.830Z,99952.73
2023-01-15T00:41:07.353Z,99959.06
2023-01-15T00:46:14.313Z,99954.59
2023-01-15T00:51:20.260Z,99940.16
2023-01-15T00:56:26.112Z,99931.75
2023-01-15T01:01:32.239Z,99923.14
2023-01-15T01:06:38.379Z,99916.09
2023-01-15T01:11:44.487Z,99916.44
2023-01-15T01:16:50.322Z,99907.66
2023-01-15T01:21:56.030Z,99902.98
2023-01-15T01:27:01.740Z,99904.19
2023-01-15T01:32:07.756Z,99903.04
2023-01-15T01:37:13.905Z,99902.71
2023-01-15T01:42:20.148Z,99901.37
2023-01-15T01:47:29.335Z,99884.04
2023-01-15T01:52:41.332Z,99877.85
2023-01-15T01:57:50.664Z,99862.38
2023-01-15T02:02:57.452Z,99843.84
2023-01-15T02:08:03.913Z,99822.21
2023-01-15T02:13:16.065Z,99812.61
2023-01-15T02:18:29.632Z,99817.77
2023-01-15T02:24:03.124Z,99816.80
2023-01-15T02:29:14.092Z,99820.45
2023-01-15T02:34:24.086Z,99817.59
2023-01-15T02:39:32.323Z,99817.09
2023-01-15T02:44:41.676Z,99820.70
2023-01-15T02:49:50.075Z,99818.98
2023-01-15T02:55:04.191Z,99809.56
2023-01-15T03:00:15.193Z,99789.81
2023-01-15T03:05:26.941Z,99768.70
2023-01-15T03:10:40.067Z,99758.61
2023-01-15T03:16:12.013Z,99751.62
2023-01-15T03:21:23.005Z,99738.59
2023-01-15T03:26:34.123Z,99739.77
2023-01-15T03:31:40.729Z,99744.91
2023-01-15T03:36:46.621Z,99739.71
2023-01-15T03:42:03.210Z,99719.58
2023-01-15T03:47:17.350Z,99704.58
2023-01-15T03:52:30.844Z,99692.36
2023-01-15T03:57:41.309Z,99695.59
2023-01-15T04:02:49.465Z,99692.98
2023-01-15T04:07:59.076Z,99684.21
2023-01-15T04:13:07.830Z,99664.42
2023-01-15T04:18:14.419Z,99670.37
2023-01-15T04:23:20.884Z,99653.98
2023-01-15T04:28:27.204Z,99649.29
2023-01-15T04:33:33.213Z,99635.34
2023-01-15T04:38:39.570Z,99614.86
2023-01-15T04:44:04.207Z,99603.52
2023-01-15T04:49:13.189Z,99597.70
2023-01-15T04:54:19.870Z,99595.63
2023-01-15T04:59:27.461Z,99578.05
2023-01-15T05:04:33.866Z,99581.52
2023-01-15T05:09:39.894Z,99574.33
2023-01-15T05:14:45.575Z,99569.52
2023-01-15T05:19:51.618Z,99564.39
2023-01-15T05:24:57.348Z,99560.11
2023-01-15T05:30:03.029Z,99557.16
2023-01-15T05:35:10.171Z,99545.79
2023-01-15T05:40:16.519Z,99549.90
2023-01-15T05:45:22.390Z,99536.98
2023-01-15T05:50:29.083Z,99536.60
2023-01-15T05:55:35.179Z,99539.92
2023-01-15T06:00:40.920Z,99542.08
2023-01-15T06:05:51.997Z,99531.87
2023-01-15T06:10:57.977Z,99528.04
2023-01-15T06:16:04.008Z,99516.11
2023-01-15T06:21:11.981Z,99499.55
2023-01-15T06:26:19.035Z,99496.92
2023-01-15T06:31:27.035Z,99484.73
2023-01-15T06:36:33.560Z,99482.88
2023-01-15T06:41:58.663Z,99480.98
2023-01-15T06:47:21.185Z,99483.55
2023-01-15T06:52:29.619Z,99492.42
2023-01-15T06:57:37.879Z,99476.98
2023-01-15T07:02:43.711Z,99469.33
2023-01-15T07:07:49.635Z,99465.60
2023-01-15T07:12:55.417Z,99466.41
2023-01-15T07:18:02.503Z,99456.55
2023-01-15T07:23:08.280Z,99461.04
2023-01-15T07:28:13.930Z,99464.30
2023-01-15T07:33:19.978Z,99458.38
2023-01-15T07:38:28.079Z,99446.25
2023-01-15T07:43:52.460Z,99442.70
2023-01-15T07:49:16.899Z,99432.03
2023-01-15T07:54:22.788Z,99431.30
2023-01-15T07:59:28.587Z,99426.99
2023-01-15T08:04:34.496Z,99425.06
2023-01-15T08:09:40.286Z,99426.67
2023-01-15T08:15:05.179Z,99423.66
2023-01-15T08:20:14.090Z,99427.20
2023-01-15T08:25:22.512Z,99426.89
2023-01-15T08:30:28.571Z,99417.80
2023-01-15T08:35:34.623Z,99413.38
2023-01-15T08:40:58.534Z,99412.50
2023-01-15T08:46:07.029Z,99409.98
2023-01-15T08:51:13.426Z,99402.83
2023-01-15T08:56:20.764Z,99403.74
2023-01-15T09:01:26.547Z,99399.50
2023-01-15T09:06:32.541Z,99402.02
2023-01-15T09:11:41.618Z,99398.15
2023-01-15T09:16:47.327Z,99397.06
2023-01-15T09:21:53.036Z,99394.02
2023-01-15T09:26:58.932Z,99389.39
2023-01-15T09:32:07.995Z,99385.64
2023-01-15T09:37:13.978Z,99379.67
2023-01-15T09:42:33.475Z,99375.39
2023-01-15T09:47:47.021Z,99376.69
2023-01-15T09:53:10.773Z,99378.14
2023-01-15T09:58:20.056Z,99369.73
2023-01-15T10:03:40.021Z,99362.91
2023-01-15T10:08:47.866Z,99358.83
2023-01-15T10:14:00.387Z,99347.59
2023-01-15T10:19:08.985Z,99343.77
2023-01-15T10:24:24.677Z,99343.59
2023-01-15T10:29:36.495Z,99332.36
2023-01-15T10:35:09.188Z,99328.92
2023-01-15T10:40:39.101Z,99329.23
2023-01-15T10:45:50.904Z,99321.38
2023-01-15T10:51:00.594Z,99311.02
2023-01-15T10:56:15.208Z,99309.64
2023-01-15T11:01:25.238Z,99304.96
2023-01-15T11:06:33.074Z,99297.59
2023-01-15T11:11:59.305Z,99296.38
2023-01-15T11:17:30.841Z,99293.45
2023-01-15T11:22:40.236Z,99292.83
2023-01-15T11:27:51.318Z,99289.30
2023-01-15T11:33:01.230Z,99287.61
2023-01-15T11:38:14.183Z,99284.33
2023-01-15T11:43:43.939Z,99284.14
2023-01-15T11:49:09.123Z,99276.88
2023-01-15T11:54:16.953Z,99274.72
2023-01-15T11:59:23.328Z,99270.13
2023-01-15T12:04:34.892Z,99265.61
2023-01-15T12:10:01.384Z,99260.51
2023-01-15T12:15:22.167Z,99259.84
2023-01-15T12:20:39.082Z,99256.54
2023-01-15T12:25:56.335Z,99257.87
2023-01-15T12:31:06.832Z,99263.61
2023-01-15T12:36:19.171Z,99257.23
2023-01-15T12:41:50.576Z,99263.52
2023-01-15T12:46:56.670Z,99270.20
2023-01-15T12:52:07.559Z,99263.59
2023-01-15T12:57:19.271Z,99267.42
2023-01-15T13:02:35.567Z,99275.92
2023-01-15T13:07:46.027Z,99273.29
2023-01-15T13:12:53.592Z,99267.56
2023-01-15T13:18:05.267Z,99270.84
2023-01-15T13:23:27.966Z,99267.57
2023-01-15T13:28:44.990Z,99266.88
2023-01-15T13:33:54.382Z,99266.13
2023-01-15T13:39:03.644Z,99270.59
2023-01-15T13:44:18.758Z,99277.58
2023-01-15T13:49:30.686Z,99278.55
2023-01-15T13:54:41.677Z,99273.64
2023-01-15T13:59:48.713Z,99272.24
2023-01-15T14:04:54.861Z,99274.70
2023-01-15T14:10:23.576Z,99280.91
2023-01-15T14:15:41.911Z,99288.64
2023-01-15T14:20:59.647Z,99289.41
2023-01-15T14:26:18.937Z,99293.68
2023-01-15T14:31:46.981Z,99301.62
2023-01-15T14:36:59.525Z,99312.27
2023-01-15T14:42:30.060Z,99314.74
2023-01-15T14:47:46.146Z,99309.76
2023-01-15T14:52:53.775Z,99297.96
2023-01-15T14:58:03.361Z,99295.23
2023-01-15T15:03:20.030Z,99303.80
2023-01-15T15:08:35.037Z,99305.88
2023-01-15T15:13:47.312Z,99295.15
2023-01-15T15:19:01.698Z,99283.00
2023-01-15T15:24:16.868Z,99283.47
2023-01-15T15:29:23.354Z,99284.95
2023-01-15T15:34:34.075Z,99280.34
2023-01-15T15:39:47.471Z,99280.59
2023-01-15T15:45:14.901Z,99278.77
2023-01-15T15:50:26.165Z,99276.17
2023-01-15T15:55:39.351Z,99276.52
2023-01-15T16:00:46.646Z,99268.98
2023-01-15T16:06:01.047Z,99259.84
2023-01-15T16:11:12.308Z,99269.44
2023-01-15T16:16:19.695Z,99276.47
2023-01-15T16:21:30.658Z,99279.67
2023-01-15T16:26:38.241Z,99289.05
2023-01-15T16:31:44.254Z,99287.20
2023-01-15T16:36:50.156Z,99290.64
2023-01-15T16:41:59.681Z,99290.90
2023-01-15T16:47:06.795Z,99299.79
2023-01-15T16:52:50.296Z,99307.56
2023-01-15T16:58:17.356Z,99313.02
2023-01-15T17:03:26.452Z,99321.02
2023-01-15T17:08:39.250Z,99332.42
2023-01-15T17:13:45.172Z,99332.21
2023-01-15T17:18:52.151Z,99329.89
2023-01-15T17:24:00.049Z,99341.45
2023-01-15T17:29:06.257Z,99344.63
2023-01-15T17:34:12.028Z,99347.48
2023-01-15T17:39:20.336Z,99357.13
2023-01-15T17:44:26.143Z,99366.85
2023-01-15T17:49:32.047Z,99371.52
2023-01-15T17:54:56.032Z,99375.84
2023-01-15T18:00:20.873Z,99389.80
2023-01-15T18:05:30.754Z,99407.88
2023-01-15T18:10:36.670Z,99418.07
2023-01-15T18:15:42.777Z,99422.70
2023-01-15T18:20:48.444Z,99426.65
2023-01-15T18:25:54.757Z,99425.45
2023-01-15T18:31:00.842Z,99420.55
2023-01-15T18:36:10.934Z,99427.96
2023-01-15T18:41:37.049Z,99429.95
2023-01-15T18:46:46.210Z,99434.64
2023-01-15T18:52:12.097Z,99442.64
2023-01-15T18:57:18.075Z,99447.81
2023-01-15T19:02:24.786Z,99449.35
2023-01-15T19:07:30.721Z,99457.31
2023-01-15T19:12:37.353Z,99463.95
2023-01-15T19:18:01.485Z,99462.25
2023-01-15T19:23:07.401Z,99468.55
2023-01-15T19:28:15.899Z,99471.34
2023-01-15T19:33:21.534Z,99471.35
2023-01-15T19:38:27.294Z,99465.69
2023-01-15T19:43:52.354Z,99463.80
2023-01-15T19:49:16.569Z,99472.23
2023-01-15T19:54:42.618Z,99478.36
2023-01-15T19:59:50.606Z,99480.65
2023-01-15T20:04:56.442Z,99482.61
2023-01-15T20:10:02.434Z,99489.41
2023-01-15T20:15:09.639Z,99502.90
2023-01-15T20:20:15.670Z,99502.73
2023-01-15T20:25:21.480Z,99490.35
2023-01-15T20:30:28.163Z,99485.94
2023-01-15T20:35:34.134Z,99486.81
2023-01-15T20:40:39.922Z,99495.59
2023-01-15T20:45:45.786Z,99498.73
2023-01-15T20:51:00.938Z,99505.50
2023-01-15T20:56:15.603Z,99499.81
2023-01-15T21:01:21.484Z,99505.79
2023-01-15T21:06:29.840Z,99499.78
2023-01-15T21:11:35.807Z,99500.80
2023-01-15T21:16:41.579Z,99507.83
2023-01-15T21:21:47.334Z,99507.65
2023-01-15T21:26:53.189Z,99512.51
2023-01-15T21:31:59.266Z,99509.09
2023-01-15T21:37:04.913Z,99514.60
2023-01-15T21:42:33.155Z,99507.55
2023-01-15T21:47:41.374Z,99504.86
2023-01-15T21:52:50.203Z,99502.84
2023-01-15T21:57:56.020Z,99510.92
2023-01-15T22:03:02.016Z,99517.52
2023-01-15T22:08:08.583Z,99518.41
2023-01-15T22:13:14.415Z,99519.11
2023-01-15T22:18:20.143Z,99508.84
2023-01-15T22:23:26.460Z,99511.78
2023-01-15T22:28:32.083Z,99516.60
2023-01-15T22:33:38.053Z,99516.45
2023-01-15T22:38:43.863Z,99510.29
2023-01-15T22:43:49.635Z,99502.57
2023-01-15T22:48:55.320Z,99502.56
2023-01-15T22:54:01.245Z,99514.46
2023-01-15T22:59:07.957Z,99514.86
2023-01-15T23:04:17.695Z,99512.97
2023-01-15T23:09:26.410Z,99518.11
2023-01-15T23:14:32.389Z,99511.79
2023-01-15T23:19:38.638Z,99512.85
2023-01-15T23:24:44.388Z,99506.30
2023-01-15T23:29:50.072Z,99499.09
2023-01-15T23:34:56.102Z,99504.13
2023-01-15T23:40:01.797Z,99499.51
2023-01-15T23:45:28.768Z,99501.76
2023-01-15T23:50:34.806Z,99496.66
2023-01-15T23:55:40.581Z,99497.35
